sensor_id;sensor_type;location;lat;lon;timestamp;P1;durP1;ratioP1;P2;durP2;ratioP2
9178;SDS011;71287;48.414;11.478;2024-02-23T00:00:06;0.20;;;0.00;;
9178;SDS011;71287;48.414;11.478;2024-02-23T00:02:35;0.40;;;0.07;;
9178;SDS011;71287;48.414;11.478;2024-02-23T00:05:02;0.10;;;0.10;;
9178;SDS011;71287;48.414;11.478;2024-02-23T00:07:31;0.20;;;0.00;;
9178;SDS011;71287;48.414;11.478;2024-02-23T00:09:57;0.00;;;0.00;;
9178;SDS011;71287;48.414;11.478;2024-02-23T00:12:24;1.23;;;0.10;;
9178;SDS011;71287;48.414;11.478;2024-02-23T00:14:51;0.00;;;0.00;;
9178;SDS011;71287;48.414;11.478;2024-02-23T00:17:18;0.20;;;0.20;;
9178;SDS011;71287;48.414;11.478;2024-02-23T00:19:45;0.47;;;0.20;;
9178;SDS011;71287;48.414;11.478;2024-02-23T00:22:12;0.30;;;0.20;;
9178;SDS011;71287;48.414;11.478;2024-02-23T00:24:40;0.20;;;0.20;;
9178;SDS011;71287;48.414;11.478;2024-02-23T00:27:07;0.20;;;0.10;;
9178;SDS011;71287;48.414;11.478;2024-02-23T00:29:34;0.40;;;0.10;;
9178;SDS011;71287;48.414;11.478;2024-02-23T00:32:01;0.30;;;0.30;;
9178;SDS011;71287;48.414;11.478;2024-02-23T00:34:28;0.40;;;0.20;;
9178;SDS011;71287;48.414;11.478;2024-02-23T00:36:57;0.70;;;0.20;;
9178;SDS011;71287;48.414;11.478;2024-02-23T00:39:23;0.30;;;0.10;;
9178;SDS011;71287;48.414;11.478;2024-02-23T00:41:51;0.10;;;0.07;;
9178;SDS011;71287;48.414;11.478;2024-02-23T00:44:18;0.10;;;0.00;;
9178;SDS011;71287;48.414;11.478;2024-02-23T00:46:45;0.00;;;0.00;;
9178;SDS011;71287;48.414;11.478;2024-02-23T00:49:12;0.00;;;0.00;;
9178;SDS011;71287;48.414;11.478;2024-02-23T00:51:38;0.33;;;0.10;;
9178;SDS011;71287;48.414;11.478;2024-02-23T00:54:05;0.10;;;0.00;;
9178;SDS011;71287;48.414;11.478;2024-02-23T00:56:32;0.00;;;0.00;;
9178;SDS011;71287;48.414;11.478;2024-02-23T00:59:01;0.10;;;0.00;;
9178;SDS011;71287;48.414;11.478;2024-02-23T01:01:28;0.20;;;0.00;;
9178;SDS011;71287;48.414;11.478;2024-02-23T01:03:54;0.30;;;0.10;;
9178;SDS011;71287;48.414;11.478;2024-02-23T01:06:21;0.10;;;0.03;;
9178;SDS011;71287;48.414;11.478;2024-02-23T01:08:48;0.00;;;0.00;;
9178;SDS011;71287;48.414;11.478;2024-02-23T01:11:15;0.00;;;0.00;;
9178;SDS011;71287;48.414;11.478;2024-02-23T01:13:42;0.10;;;0.07;;
9178;SDS011;71287;48.414;11.478;2024-02-23T01:16:10;0.10;;;0.00;;
9178;SDS011;71287;48.414;11.478;2024-02-23T01:18:36;0.10;;;0.10;;
9178;SDS011;71287;48.414;11.478;2024-02-23T01:21:03;0.20;;;0.00;;
9178;SDS011;71287;48.414;11.478;2024-02-23T01:23:30;1.17;;;0.10;;
9178;SDS011;71287;48.414;11.478;2024-02-23T01:25:57;0.00;;;0.00;;
9178;SDS011;71287;48.414;11.478;2024-02-23T01:28:25;0.00;;;0.00;;
9178;SDS011;71287;48.414;11.478;2024-02-23T01:30:52;0.10;;;0.00;;
9178;SDS011;71287;48.414;11.478;2024-02-23T01:33:20;0.37;;;0.17;;
9178;SDS011;71287;48.414;11.478;2024-02-23T01:35:46;0.97;;;0.10;;
9178;SDS011;71287;48.414;11.478;2024-02-23T01:38:13;1.80;;;0.20;;
9178;SDS011;71287;48.414;11.478;2024-02-23T01:40:44;0.20;;;0.10;;
9178;SDS011;71287;48.414;11.478;2024-02-23T01:43:11;0.93;;;0.10;;
9178;SDS011;71287;48.414;11.478;2024-02-23T01:45:37;0.30;;;0.20;;
9178;SDS011;71287;48.414;11.478;2024-02-23T01:48:04;0.30;;;0.00;;
9178;SDS011;71287;48.414;11.478;2024-02-23T01:50:33;0.50;;;0.10;;
9178;SDS011;71287;48.414;11.478;2024-02-23T01:53:01;0.10;;;0.00;;
9178;SDS011;71287;48.414;11.478;2024-02-23T01:55:28;0.30;;;0.10;;
9178;SDS011;71287;48.414;11.478;2024-02-23T01:57:56;0.00;;;0.00;;
9178;SDS011;71287;48.414;11.478;2024-02-23T02:00:24;0.10;;;0.00;;
9178;SDS011;71287;48.414;11.478;2024-02-23T02:02:50;0.30;;;0.17;;
9178;SDS011;71287;48.414;11.478;2024-02-23T02:05:17;0.30;;;0.00;;
9178;SDS011;71287;48.414;11.478;2024-02-23T02:07:45;0.10;;;0.10;;
9178;SDS011;71287;48.414;11.478;2024-02-23T02:10:15;0.63;;;0.00;;
9178;SDS011;71287;48.414;11.478;2024-02-23T02:12:43;0.00;;;0.00;;
9178;SDS011;71287;48.414;11.478;2024-02-23T02:15:10;0.20;;;0.00;;
9178;SDS011;71287;48.414;11.478;2024-02-23T02:17:36;0.60;;;0.10;;
9178;SDS011;71287;48.414;11.478;2024-02-23T02:20:03;0.40;;;0.10;;
9178;SDS011;71287;48.414;11.478;2024-02-23T02:22:31;0.30;;;0.10;;
9178;SDS011;71287;48.414;11.478;2024-02-23T02:25:00;0.10;;;0.10;;
9178;SDS011;71287;48.414;11.478;2024-02-23T02:27:27;0.77;;;0.10;;
9178;SDS011;71287;48.414;11.478;2024-02-23T02:29:54;0.20;;;0.10;;
9178;SDS011;71287;48.414;11.478;2024-02-23T02:32:20;0.20;;;0.10;;
9178;SDS011;71287;48.414;11.478;2024-02-23T02:34:47;0.03;;;0.00;;
9178;SDS011;71287;48.414;11.478;2024-02-23T02:37:14;0.00;;;0.00;;
9178;SDS011;71287;48.414;11.478;2024-02-23T02:39:40;0.30;;;0.17;;
9178;SDS011;71287;48.414;11.478;2024-02-23T02:42:09;0.00;;;0.00;;
9178;SDS011;71287;48.414;11.478;2024-02-23T02:44:35;0.27;;;0.00;;
9178;SDS011;71287;48.414;11.478;2024-02-23T02:47:02;0.00;;;0.00;;
9178;SDS011;71287;48.414;11.478;2024-02-23T02:49:29;0.00;;;0.00;;
9178;SDS011;71287;48.414;11.478;2024-02-23T02:51:56;0.03;;;0.00;;
9178;SDS011;71287;48.414;11.478;2024-02-23T02:54:22;0.07;;;0.03;;
9178;SDS011;71287;48.414;11.478;2024-02-23T02:56:48;0.10;;;0.10;;
9178;SDS011;71287;48.414;11.478;2024-02-23T02:59:17;0.23;;;0.00;;
9178;SDS011;71287;48.414;11.478;2024-02-23T03:01:44;0.00;;;0.00;;
9178;SDS011;71287;48.414;11.478;2024-02-23T03:04:12;0.00;;;0.00;;
9178;SDS011;71287;48.414;11.478;2024-02-23T03:06:39;0.00;;;0.00;;
9178;SDS011;71287;48.414;11.478;2024-02-23T03:09:05;0.00;;;0.00;;
9178;SDS011;71287;48.414;11.478;2024-02-23T03:11:32;0.00;;;0.00;;
9178;SDS011;71287;48.414;11.478;2024-02-23T03:13:59;0.30;;;0.00;;
9178;SDS011;71287;48.414;11.478;2024-02-23T03:16:27;0.00;;;0.00;;
9178;SDS011;71287;48.414;11.478;2024-02-23T03:18:56;0.10;;;0.00;;
9178;SDS011;71287;48.414;11.478;2024-02-23T03:21:23;0.00;;;0.00;;
9178;SDS011;71287;48.414;11.478;2024-02-23T03:23:50;0.23;;;0.00;;
9178;SDS011;71287;48.414;11.478;2024-02-23T03:26:16;0.00;;;0.00;;
9178;SDS011;71287;48.414;11.478;2024-02-23T03:28:42;0.27;;;0.00;;
9178;SDS011;71287;48.414;11.478;2024-02-23T03:31:09;0.10;;;0.03;;
9178;SDS011;71287;48.414;11.478;2024-02-23T03:33:37;0.00;;;0.00;;
9178;SDS011;71287;48.414;11.478;2024-02-23T03:36:04;0.00;;;0.00;;
9178;SDS011;71287;48.414;11.478;2024-02-23T03:38:31;0.20;;;0.10;;
9178;SDS011;71287;48.414;11.478;2024-02-23T03:40:59;0.00;;;0.00;;
9178;SDS011;71287;48.414;11.478;2024-02-23T03:43:26;0.30;;;0.00;;
9178;SDS011;71287;48.414;11.478;2024-02-23T03:45:53;1.30;;;0.10;;
9178;SDS011;71287;48.414;11.478;2024-02-23T03:48:19;0.20;;;0.00;;
9178;SDS011;71287;48.414;11.478;2024-02-23T03:50:47;0.07;;;0.00;;
9178;SDS011;71287;48.414;11.478;2024-02-23T03:53:14;0.00;;;0.00;;
9178;SDS011;71287;48.414;11.478;2024-02-23T03:55:41;0.00;;;0.00;;
9178;SDS011;71287;48.414;11.478;2024-02-23T03:58:08;0.40;;;0.33;;
9178;SDS011;71287;48.414;11.478;2024-02-23T04:00:35;0.23;;;0.00;;
9178;SDS011;71287;48.414;11.478;2024-02-23T04:03:01;1.10;;;0.00;;
9178;SDS011;71287;48.414;11.478;2024-02-23T04:05:28;0.10;;;0.00;;
9178;SDS011;71287;48.414;11.478;2024-02-23T04:07:56;0.00;;;0.00;;
9178;SDS011;71287;48.414;11.478;2024-02-23T04:10:23;0.00;;;0.00;;
9178;SDS011;71287;48.414;11.478;2024-02-23T04:12:50;0.97;;;0.03;;
9178;SDS011;71287;48.414;11.478;2024-02-23T04:15:17;0.27;;;0.10;;
9178;SDS011;71287;48.414;11.478;2024-02-23T04:17:44;0.10;;;0.00;;
9178;SDS011;71287;48.414;11.478;2024-02-23T04:20:11;0.10;;;0.10;;
9178;SDS011;71287;48.414;11.478;2024-02-23T04:22:38;0.10;;;0.00;;
9178;SDS011;71287;48.414;11.478;2024-02-23T04:25:07;0.10;;;0.10;;
9178;SDS011;71287;48.414;11.478;2024-02-23T04:27:34;0.00;;;0.00;;
9178;SDS011;71287;48.414;11.478;2024-02-23T04:30:00;0.00;;;0.00;;
9178;SDS011;71287;48.414;11.478;2024-02-23T04:32:26;0.73;;;0.00;;
9178;SDS011;71287;48.414;11.478;2024-02-23T04:34:53;0.00;;;0.00;;
9178;SDS011;71287;48.414;11.478;2024-02-23T04:37:20;0.00;;;0.00;;
9178;SDS011;71287;48.414;11.478;2024-02-23T04:39:46;0.00;;;0.00;;
9178;SDS011;71287;48.414;11.478;2024-02-23T04:42:14;0.07;;;0.00;;
9178;SDS011;71287;48.414;11.478;2024-02-23T04:44:41;0.10;;;0.00;;
9178;SDS011;71287;48.414;11.478;2024-02-23T04:47:08;0.00;;;0.00;;
9178;SDS011;71287;48.414;11.478;2024-02-23T04:49:35;0.10;;;0.10;;
9178;SDS011;71287;48.414;11.478;2024-02-23T04:52:02;0.50;;;0.20;;
9178;SDS011;71287;48.414;11.478;2024-02-23T04:54:29;1.83;;;0.70;;
9178;SDS011;71287;48.414;11.478;2024-02-23T04:56:56;1.37;;;0.73;;
9178;SDS011;71287;48.414;11.478;2024-02-23T04:59:24;0.67;;;0.60;;
9178;SDS011;71287;48.414;11.478;2024-02-23T05:01:50;0.53;;;0.53;;
9178;SDS011;71287;48.414;11.478;2024-02-23T05:04:17;1.07;;;0.70;;
9178;SDS011;71287;48.414;11.478;2024-02-23T05:06:44;0.60;;;0.53;;
9178;SDS011;71287;48.414;11.478;2024-02-23T05:09:11;0.60;;;0.50;;
9178;SDS011;71287;48.414;11.478;2024-02-23T05:11:37;0.93;;;0.70;;
9178;SDS011;71287;48.414;11.478;2024-02-23T05:14:04;1.00;;;0.77;;
9178;SDS011;71287;48.414;11.478;2024-02-23T05:16:33;1.27;;;0.70;;
9178;SDS011;71287;48.414;11.478;2024-02-23T05:18:59;0.50;;;0.40;;
9178;SDS011;71287;48.414;11.478;2024-02-23T05:21:26;0.40;;;0.40;;
9178;SDS011;71287;48.414;11.478;2024-02-23T05:23:53;0.30;;;0.30;;
9178;SDS011;71287;48.414;11.478;2024-02-23T05:26:20;0.37;;;0.30;;
9178;SDS011;71287;48.414;11.478;2024-02-23T05:28:46;0.40;;;0.40;;
9178;SDS011;71287;48.414;11.478;2024-02-23T05:31:13;0.53;;;0.37;;
9178;SDS011;71287;48.414;11.478;2024-02-23T05:33:41;0.40;;;0.30;;
9178;SDS011;71287;48.414;11.478;2024-02-23T05:36:08;1.13;;;0.60;;
9178;SDS011;71287;48.414;11.478;2024-02-23T05:38:35;0.57;;;0.53;;
9178;SDS011;71287;48.414;11.478;2024-02-23T05:41:01;0.40;;;0.40;;
9178;SDS011;71287;48.414;11.478;2024-02-23T05:43:30;0.47;;;0.30;;
9178;SDS011;71287;48.414;11.478;2024-02-23T05:45:56;0.57;;;0.20;;
9178;SDS011;71287;48.414;11.478;2024-02-23T05:48:23;0.10;;;0.10;;
9178;SDS011;71287;48.414;11.478;2024-02-23T05:50:51;0.33;;;0.10;;
9178;SDS011;71287;48.414;11.478;2024-02-23T05:53:18;0.73;;;0.13;;
9178;SDS011;71287;48.414;11.478;2024-02-23T05:55:45;0.60;;;0.30;;
9178;SDS011;71287;48.414;11.478;2024-02-23T05:58:12;0.87;;;0.70;;
9178;SDS011;71287;48.414;11.478;2024-02-23T06:00:38;1.57;;;0.80;;
9178;SDS011;71287;48.414;11.478;2024-02-23T06:03:05;1.10;;;0.90;;
9178;SDS011;71287;48.414;11.478;2024-02-23T06:05:32;1.07;;;0.90;;
9178;SDS011;71287;48.414;11.478;2024-02-23T06:08:00;1.03;;;0.80;;
9178;SDS011;71287;48.414;11.478;2024-02-23T06:10:27;1.27;;;0.50;;
9178;SDS011;71287;48.414;11.478;2024-02-23T06:12:54;0.50;;;0.50;;
9178;SDS011;71287;48.414;11.478;2024-02-23T06:15:21;0.40;;;0.40;;
9178;SDS011;71287;48.414;11.478;2024-02-23T06:17:48;0.80;;;0.50;;
9178;SDS011;71287;48.414;11.478;2024-02-23T06:20:14;0.60;;;0.60;;
9178;SDS011;71287;48.414;11.478;2024-02-23T06:22:41;1.63;;;0.83;;
9178;SDS011;71287;48.414;11.478;2024-02-23T06:25:09;1.60;;;1.00;;
9178;SDS011;71287;48.414;11.478;2024-02-23T06:27:37;1.60;;;1.27;;
9178;SDS011;71287;48.414;11.478;2024-02-23T06:30:04;1.97;;;1.40;;
9178;SDS011;71287;48.414;11.478;2024-02-23T06:32:31;0.93;;;0.80;;
9178;SDS011;71287;48.414;11.478;2024-02-23T06:34:58;0.40;;;0.40;;
9178;SDS011;71287;48.414;11.478;2024-02-23T06:37:25;1.03;;;0.20;;
9178;SDS011;71287;48.414;11.478;2024-02-23T06:39:51;0.10;;;0.10;;
9178;SDS011;71287;48.414;11.478;2024-02-23T06:42:21;0.20;;;0.13;;
9178;SDS011;71287;48.414;11.478;2024-02-23T06:44:47;1.13;;;0.20;;
9178;SDS011;71287;48.414;11.478;2024-02-23T06:47:15;0.30;;;0.30;;
9178;SDS011;71287;48.414;11.478;2024-02-23T06:49:42;0.40;;;0.30;;
9178;SDS011;71287;48.414;11.478;2024-02-23T06:52:09;0.60;;;0.40;;
9178;SDS011;71287;48.414;11.478;2024-02-23T06:54:36;0.40;;;0.30;;
9178;SDS011;71287;48.414;11.478;2024-02-23T06:57:02;0.70;;;0.40;;
9178;SDS011;71287;48.414;11.478;2024-02-23T06:59:31;1.60;;;0.40;;
9178;SDS011;71287;48.414;11.478;2024-02-23T07:01:58;0.27;;;0.20;;
9178;SDS011;71287;48.414;11.478;2024-02-23T07:04:25;0.47;;;0.30;;
9178;SDS011;71287;48.414;11.478;2024-02-23T07:06:52;0.77;;;0.37;;
9178;SDS011;71287;48.414;11.478;2024-02-23T07:09:18;0.93;;;0.10;;
9178;SDS011;71287;48.414;11.478;2024-02-23T07:11:45;0.40;;;0.20;;
9178;SDS011;71287;48.414;11.478;2024-02-23T07:14:12;0.20;;;0.10;;
9178;SDS011;71287;48.414;11.478;2024-02-23T07:16:40;0.50;;;0.20;;
9178;SDS011;71287;48.414;11.478;2024-02-23T07:19:07;0.57;;;0.20;;
9178;SDS011;71287;48.414;11.478;2024-02-23T07:21:34;0.50;;;0.50;;
9178;SDS011;71287;48.414;11.478;2024-02-23T07:24:01;1.47;;;0.70;;
9178;SDS011;71287;48.414;11.478;2024-02-23T07:26:28;0.93;;;0.80;;
9178;SDS011;71287;48.414;11.478;2024-02-23T07:28:55;0.57;;;0.57;;
9178;SDS011;71287;48.414;11.478;2024-02-23T07:31:22;0.20;;;0.20;;
9178;SDS011;71287;48.414;11.478;2024-02-23T07:33:50;0.40;;;0.30;;
9178;SDS011;71287;48.414;11.478;2024-02-23T07:36:17;0.13;;;0.13;;
9178;SDS011;71287;48.414;11.478;2024-02-23T07:38:44;0.60;;;0.10;;
9178;SDS011;71287;48.414;11.478;2024-02-23T07:41:10;0.20;;;0.10;;
9178;SDS011;71287;48.414;11.478;2024-02-23T07:43:38;0.50;;;0.20;;
9178;SDS011;71287;48.414;11.478;2024-02-23T07:46:05;0.30;;;0.07;;
9178;SDS011;71287;48.414;11.478;2024-02-23T07:48:33;0.30;;;0.10;;
9178;SDS011;71287;48.414;11.478;2024-02-23T07:51:02;0.50;;;0.13;;
9178;SDS011;71287;48.414;11.478;2024-02-23T07:53:29;1.17;;;0.43;;
9178;SDS011;71287;48.414;11.478;2024-02-23T07:55:56;1.73;;;1.00;;
9178;SDS011;71287;48.414;11.478;2024-02-23T07:58:24;1.63;;;1.10;;
9178;SDS011;71287;48.414;11.478;2024-02-23T08:00:51;0.90;;;0.50;;
9178;SDS011;71287;48.414;11.478;2024-02-23T08:03:19;0.43;;;0.40;;
9178;SDS011;71287;48.414;11.478;2024-02-23T08:05:46;3.17;;;1.93;;
9178;SDS011;71287;48.414;11.478;2024-02-23T08:08:14;4.23;;;2.47;;
9178;SDS011;71287;48.414;11.478;2024-02-23T08:10:40;4.40;;;2.93;;
9178;SDS011;71287;48.414;11.478;2024-02-23T08:13:07;2.53;;;2.03;;
9178;SDS011;71287;48.414;11.478;2024-02-23T08:15:35;0.70;;;0.70;;
9178;SDS011;71287;48.414;11.478;2024-02-23T08:18:02;0.67;;;0.57;;
9178;SDS011;71287;48.414;11.478;2024-02-23T08:20:29;1.47;;;0.57;;
9178;SDS011;71287;48.414;11.478;2024-02-23T08:22:55;0.60;;;0.60;;
9178;SDS011;71287;48.414;11.478;2024-02-23T08:25:24;0.90;;;0.90;;
9178;SDS011;71287;48.414;11.478;2024-02-23T08:27:53;0.60;;;0.60;;
9178;SDS011;71287;48.414;11.478;2024-02-23T08:30:20;0.80;;;0.67;;
9178;SDS011;71287;48.414;11.478;2024-02-23T08:32:47;0.30;;;0.30;;
9178;SDS011;71287;48.414;11.478;2024-02-23T08:35:14;0.10;;;0.10;;
9178;SDS011;71287;48.414;11.478;2024-02-23T08:37:41;0.63;;;0.20;;
9178;SDS011;71287;48.414;11.478;2024-02-23T08:40:08;0.97;;;0.20;;
9178;SDS011;71287;48.414;11.478;2024-02-23T08:42:37;0.10;;;0.10;;
9178;SDS011;71287;48.414;11.478;2024-02-23T08:45:04;0.20;;;0.20;;
9178;SDS011;71287;48.414;11.478;2024-02-23T08:47:31;0.33;;;0.20;;
9178;SDS011;71287;48.414;11.478;2024-02-23T08:50:00;0.63;;;0.23;;
9178;SDS011;71287;48.414;11.478;2024-02-23T08:52:27;0.23;;;0.20;;
9178;SDS011;71287;48.414;11.478;2024-02-23T08:54:54;0.20;;;0.13;;
9178;SDS011;71287;48.414;11.478;2024-02-23T08:57:21;0.40;;;0.30;;
9178;SDS011;71287;48.414;11.478;2024-02-23T08:59:49;0.47;;;0.40;;
9178;SDS011;71287;48.414;11.478;2024-02-23T09:02:16;0.53;;;0.50;;
9178;SDS011;71287;48.414;11.478;2024-02-23T09:04:43;2.20;;;0.80;;
9178;SDS011;71287;48.414;11.478;2024-02-23T09:07:10;1.00;;;0.40;;
9178;SDS011;71287;48.414;11.478;2024-02-23T09:09:37;0.43;;;0.23;;
9178;SDS011;71287;48.414;11.478;2024-02-23T09:12:04;1.27;;;0.50;;
9178;SDS011;71287;48.414;11.478;2024-02-23T09:14:35;0.53;;;0.50;;
9178;SDS011;71287;48.414;11.478;2024-02-23T09:17:04;2.40;;;0.40;;
9178;SDS011;71287;48.414;11.478;2024-02-23T09:19:33;0.30;;;0.30;;
9178;SDS011;71287;48.414;11.478;2024-02-23T09:22:00;1.13;;;0.50;;
9178;SDS011;71287;48.414;11.478;2024-02-23T09:24:27;0.80;;;0.60;;
9178;SDS011;71287;48.414;11.478;2024-02-23T09:26:54;0.20;;;0.20;;
9178;SDS011;71287;48.414;11.478;2024-02-23T09:29:21;0.73;;;0.30;;
9178;SDS011;71287;48.414;11.478;2024-02-23T09:31:48;0.90;;;0.23;;
9178;SDS011;71287;48.414;11.478;2024-02-23T09:34:16;2.23;;;0.60;;
9178;SDS011;71287;48.414;11.478;2024-02-23T09:36:43;0.50;;;0.30;;
9178;SDS011;71287;48.414;11.478;2024-02-23T09:39:10;1.20;;;0.47;;
9178;SDS011;71287;48.414;11.478;2024-02-23T09:41:36;0.23;;;0.20;;
9178;SDS011;71287;48.414;11.478;2024-02-23T09:44:05;0.80;;;0.50;;
9178;SDS011;71287;48.414;11.478;2024-02-23T09:46:34;1.63;;;0.70;;
9178;SDS011;71287;48.414;11.478;2024-02-23T09:49:03;1.00;;;0.20;;
9178;SDS011;71287;48.414;11.478;2024-02-23T09:51:33;1.07;;;0.30;;
9178;SDS011;71287;48.414;11.478;2024-02-23T09:54:00;0.70;;;0.47;;
9178;SDS011;71287;48.414;11.478;2024-02-23T09:56:27;2.53;;;0.40;;
9178;SDS011;71287;48.414;11.478;2024-02-23T09:58:55;0.67;;;0.30;;
9178;SDS011;71287;48.414;11.478;2024-02-23T10:01:24;0.93;;;0.50;;
9178;SDS011;71287;48.414;11.478;2024-02-23T10:03:54;0.53;;;0.40;;
9178;SDS011;71287;48.414;11.478;2024-02-23T10:06:23;0.97;;;0.40;;
9178;SDS011;71287;48.414;11.478;2024-02-23T10:08:51;2.87;;;0.57;;
9178;SDS011;71287;48.414;11.478;2024-02-23T10:11:19;0.80;;;0.60;;
9178;SDS011;71287;48.414;11.478;2024-02-23T10:13:47;4.00;;;1.17;;
9178;SDS011;71287;48.414;11.478;2024-02-23T10:16:14;2.07;;;0.60;;
9178;SDS011;71287;48.414;11.478;2024-02-23T10:18:41;0.47;;;0.30;;
9178;SDS011;71287;48.414;11.478;2024-02-23T10:21:08;0.97;;;0.20;;
9178;SDS011;71287;48.414;11.478;2024-02-23T10:23:35;0.40;;;0.20;;
9178;SDS011;71287;48.414;11.478;2024-02-23T10:26:03;1.43;;;0.43;;
9178;SDS011;71287;48.414;11.478;2024-02-23T10:28:31;0.70;;;0.60;;
9178;SDS011;71287;48.414;11.478;2024-02-23T10:30:57;0.87;;;0.70;;
9178;SDS011;71287;48.414;11.478;2024-02-23T10:33:25;2.40;;;0.30;;
9178;SDS011;71287;48.414;11.478;2024-02-23T10:35:52;0.80;;;0.37;;
9178;SDS011;71287;48.414;11.478;2024-02-23T10:38:22;0.50;;;0.27;;
9178;SDS011;71287;48.414;11.478;2024-02-23T10:40:50;0.53;;;0.50;;
9178;SDS011;71287;48.414;11.478;2024-02-23T10:43:26;0.40;;;0.10;;
9178;SDS011;71287;48.414;11.478;2024-02-23T10:45:57;0.77;;;0.23;;
9178;SDS011;71287;48.414;11.478;2024-02-23T10:48:27;0.30;;;0.10;;
9178;SDS011;71287;48.414;11.478;2024-02-23T10:50:55;0.73;;;0.20;;
9178;SDS011;71287;48.414;11.478;2024-02-23T10:53:23;1.13;;;0.40;;
9178;SDS011;71287;48.414;11.478;2024-02-23T10:55:51;0.50;;;0.30;;
9178;SDS011;71287;48.414;11.478;2024-02-23T10:58:23;0.80;;;0.43;;
9178;SDS011;71287;48.414;11.478;2024-02-23T11:00:50;0.63;;;0.40;;
9178;SDS011;71287;48.414;11.478;2024-02-23T11:03:17;1.70;;;0.50;;
9178;SDS011;71287;48.414;11.478;2024-02-23T11:05:47;1.00;;;0.63;;
9178;SDS011;71287;48.414;11.478;2024-02-23T11:08:16;0.83;;;0.30;;
9178;SDS011;71287;48.414;11.478;2024-02-23T11:10:48;0.70;;;0.30;;
9178;SDS011;71287;48.414;11.478;2024-02-23T11:13:16;1.80;;;0.50;;
9178;SDS011;71287;48.414;11.478;2024-02-23T11:15:45;1.00;;;0.30;;
9178;SDS011;71287;48.414;11.478;2024-02-23T11:18:21;0.90;;;0.50;;
9178;SDS011;71287;48.414;11.478;2024-02-23T11:20:53;1.23;;;0.50;;
9178;SDS011;71287;48.414;11.478;2024-02-23T11:23:21;1.43;;;0.30;;
9178;SDS011;71287;48.414;11.478;2024-02-23T11:25:58;2.33;;;0.40;;
9178;SDS011;71287;48.414;11.478;2024-02-23T11:28:27;1.40;;;0.53;;
9178;SDS011;71287;48.414;11.478;2024-02-23T11:30:55;1.87;;;0.60;;
9178;SDS011;71287;48.414;11.478;2024-02-23T11:33:25;2.63;;;0.70;;
9178;SDS011;71287;48.414;11.478;2024-02-23T11:35:52;2.67;;;1.03;;
9178;SDS011;71287;48.414;11.478;2024-02-23T11:38:20;1.33;;;0.60;;
9178;SDS011;71287;48.414;11.478;2024-02-23T11:40:48;2.50;;;1.00;;
9178;SDS011;71287;48.414;11.478;2024-02-23T11:43:15;4.07;;;1.77;;
9178;SDS011;71287;48.414;11.478;2024-02-23T11:45:46;2.87;;;1.27;;
9178;SDS011;71287;48.414;11.478;2024-02-23T11:48:14;2.20;;;0.50;;
9178;SDS011;71287;48.414;11.478;2024-02-23T11:50:41;1.27;;;0.60;;
9178;SDS011;71287;48.414;11.478;2024-02-23T11:53:08;1.03;;;0.60;;
9178;SDS011;71287;48.414;11.478;2024-02-23T11:55:35;4.63;;;0.60;;
9178;SDS011;71287;48.414;11.478;2024-02-23T11:58:02;2.93;;;0.60;;
9178;SDS011;71287;48.414;11.478;2024-02-23T12:00:28;0.80;;;0.43;;
9178;SDS011;71287;48.414;11.478;2024-02-23T12:02:56;0.80;;;0.40;;
9178;SDS011;71287;48.414;11.478;2024-02-23T12:05:24;1.43;;;0.40;;
9178;SDS011;71287;48.414;11.478;2024-02-23T12:07:51;1.17;;;0.47;;
9178;SDS011;71287;48.414;11.478;2024-02-23T12:10:18;0.70;;;0.40;;
9178;SDS011;71287;48.414;11.478;2024-02-23T12:12:45;1.43;;;0.40;;
9178;SDS011;71287;48.414;11.478;2024-02-23T12:15:12;0.47;;;0.40;;
9178;SDS011;71287;48.414;11.478;2024-02-23T12:17:46;0.30;;;0.23;;
9178;SDS011;71287;48.414;11.478;2024-02-23T12:20:13;1.07;;;0.20;;
9178;SDS011;71287;48.414;11.478;2024-02-23T12:22:41;1.30;;;0.20;;
9178;SDS011;71287;48.414;11.478;2024-02-23T12:25:08;0.50;;;0.30;;
9178;SDS011;71287;48.414;11.478;2024-02-23T12:27:35;1.20;;;0.20;;
9178;SDS011;71287;48.414;11.478;2024-02-23T12:30:02;1.30;;;0.30;;
9178;SDS011;71287;48.414;11.478;2024-02-23T12:32:29;1.03;;;0.30;;
9178;SDS011;71287;48.414;11.478;2024-02-23T12:34:55;0.70;;;0.13;;
9178;SDS011;71287;48.414;11.478;2024-02-23T12:37:22;2.23;;;0.37;;
9178;SDS011;71287;48.414;11.478;2024-02-23T12:39:50;0.60;;;0.20;;
9178;SDS011;71287;48.414;11.478;2024-02-23T12:42:17;2.53;;;0.57;;
9178;SDS011;71287;48.414;11.478;2024-02-23T12:44:44;1.03;;;0.17;;
9178;SDS011;71287;48.414;11.478;2024-02-23T12:47:12;2.10;;;0.20;;
9178;SDS011;71287;48.414;11.478;2024-02-23T12:49:39;1.60;;;0.23;;
9178;SDS011;71287;48.414;11.478;2024-02-23T12:52:05;1.27;;;0.20;;
9178;SDS011;71287;48.414;11.478;2024-02-23T12:54:32;1.00;;;0.10;;
9178;SDS011;71287;48.414;11.478;2024-02-23T12:57:00;0.73;;;0.20;;
9178;SDS011;71287;48.414;11.478;2024-02-23T12:59:27;1.03;;;0.20;;
9178;SDS011;71287;48.414;11.478;2024-02-23T13:01:54;0.70;;;0.20;;
9178;SDS011;71287;48.414;11.478;2024-02-23T13:04:21;2.57;;;0.20;;
9178;SDS011;71287;48.414;11.478;2024-02-23T13:06:47;0.20;;;0.20;;
9178;SDS011;71287;48.414;11.478;2024-02-23T13:09:14;1.23;;;0.10;;
9178;SDS011;71287;48.414;11.478;2024-02-23T13:11:41;0.50;;;0.10;;
9178;SDS011;71287;48.414;11.478;2024-02-23T13:14:09;0.60;;;0.00;;
9178;SDS011;71287;48.414;11.478;2024-02-23T13:16:36;0.13;;;0.13;;
9178;SDS011;71287;48.414;11.478;2024-02-23T13:19:03;1.07;;;0.30;;
9178;SDS011;71287;48.414;11.478;2024-02-23T13:21:29;0.20;;;0.13;;
9178;SDS011;71287;48.414;11.478;2024-02-23T13:23:57;0.60;;;0.30;;
9178;SDS011;71287;48.414;11.478;2024-02-23T13:26:24;1.00;;;0.23;;
9178;SDS011;71287;48.414;11.478;2024-02-23T13:28:50;0.67;;;0.17;;
9178;SDS011;71287;48.414;11.478;2024-02-23T13:31:19;0.80;;;0.30;;
9178;SDS011;71287;48.414;11.478;2024-02-23T13:33:46;0.20;;;0.20;;
9178;SDS011;71287;48.414;11.478;2024-02-23T13:36:13;1.03;;;0.10;;
9178;SDS011;71287;48.414;11.478;2024-02-23T13:38:39;0.10;;;0.10;;
9178;SDS011;71287;48.414;11.478;2024-02-23T13:41:06;0.30;;;0.10;;
9178;SDS011;71287;48.414;11.478;2024-02-23T13:43:33;0.57;;;0.10;;
9178;SDS011;71287;48.414;11.478;2024-02-23T13:46:00;0.07;;;0.07;;
9178;SDS011;71287;48.414;11.478;2024-02-23T13:48:30;1.33;;;0.40;;
9178;SDS011;71287;48.414;11.478;2024-02-23T13:50:57;0.53;;;0.30;;
9178;SDS011;71287;48.414;11.478;2024-02-23T13:53:28;0.30;;;0.10;;
9178;SDS011;71287;48.414;11.478;2024-02-23T13:55:55;0.40;;;0.10;;
9178;SDS011;71287;48.414;11.478;2024-02-23T13:58:22;1.10;;;0.10;;
9178;SDS011;71287;48.414;11.478;2024-02-23T14:00:48;0.60;;;0.13;;
9178;SDS011;71287;48.414;11.478;2024-02-23T14:03:15;0.47;;;0.40;;
9178;SDS011;71287;48.414;11.478;2024-02-23T14:05:44;0.30;;;0.20;;
9178;SDS011;71287;48.414;11.478;2024-02-23T14:08:12;1.00;;;0.13;;
9178;SDS011;71287;48.414;11.478;2024-02-23T14:10:39;0.30;;;0.10;;
9178;SDS011;71287;48.414;11.478;2024-02-23T14:13:08;0.27;;;0.10;;
9178;SDS011;71287;48.414;11.478;2024-02-23T14:15:34;0.10;;;0.10;;
9178;SDS011;71287;48.414;11.478;2024-02-23T14:18:01;0.20;;;0.20;;
9178;SDS011;71287;48.414;11.478;2024-02-23T14:20:28;0.77;;;0.20;;
9178;SDS011;71287;48.414;11.478;2024-02-23T14:22:56;0.23;;;0.20;;
9178;SDS011;71287;48.414;11.478;2024-02-23T14:25:23;1.27;;;0.50;;
9178;SDS011;71287;48.414;11.478;2024-02-23T14:27:49;0.87;;;0.20;;
9178;SDS011;71287;48.414;11.478;2024-02-23T14:30:16;0.43;;;0.20;;
9178;SDS011;71287;48.414;11.478;2024-02-23T14:32:43;0.30;;;0.03;;
9178;SDS011;71287;48.414;11.478;2024-02-23T14:35:10;0.10;;;0.10;;
9178;SDS011;71287;48.414;11.478;2024-02-23T14:37:36;0.40;;;0.10;;
9178;SDS011;71287;48.414;11.478;2024-02-23T14:40:05;0.17;;;0.10;;
9178;SDS011;71287;48.414;11.478;2024-02-23T14:42:33;0.60;;;0.10;;
9178;SDS011;71287;48.414;11.478;2024-02-23T14:45:00;0.63;;;0.20;;
9178;SDS011;71287;48.414;11.478;2024-02-23T14:47:26;0.17;;;0.10;;